Time;durP1;ratioP1;P1;durP2;ratioP2;P2;SDS_P1;SDS_P2;PMS_P1;PMS_P2;Temp;Humidity;BMP_temperature;BMP_pressure;BME280_temperature;BME280_humidity;BME280_pressure;Samples;Min_cycle;Max_cycle;Signal;HPM_P1;HPM_P2
2023/03/10 00:02:19;;;;;;;28.38;16.67;;;1.90;99.90;;;;;;5030370;28;20045;-56
2023/03/10 00:04:49;;;;;;;28.65;16.13;;;1.90;99.90;;;;;;5024819;28;20033;-57
2023/03/10 00:07:15;;;;;;;25.98;15.10;;;1.90;99.90;;;;;;5027400;28;20120;-57
2023/03/10 00:09:41;;;;;;;31.15;16.80;;;1.90;99.90;;;;;;5017145;28;20132;-52
2023/03/10 00:12:07;;;;;;;28.67;15.93;;;1.90;99.90;;;;;;5030171;28;20064;-57
2023/03/10 00:14:32;;;;;;;28.88;15.07;;;1.90;99.90;;;;;;5022136;28;20033;-57
2023/03/10 00:16:58;;;;;;;27.58;15.75;;;2.00;99.90;;;;;;5028232;28;20053;-57
2023/03/10 00:19:25;;;;;;;26.05;15.52;;;1.90;99.90;;;;;;5020867;28;20068;-57
2023/03/10 00:21:51;;;;;;;29.75;15.80;;;1.90;99.90;;;;;;5019930;28;20492;-57
2023/03/10 00:24:17;;;;;;;26.35;15.38;;;1.90;99.90;;;;;;5036333;28;20268;-57
2023/03/10 00:26:45;;;;;;;27.80;15.27;;;1.90;99.90;;;;;;5029103;28;20115;-58
2023/03/10 00:29:11;;;;;;;25.80;15.23;;;1.90;99.90;;;;;;5029241;28;20098;-56
2023/03/10 00:31:37;;;;;;;27.90;15.45;;;2.00;99.90;;;;;;5019205;28;20033;-54
2023/03/10 00:34:04;;;;;;;24.17;14.82;;;1.90;99.90;;;;;;5020197;28;20048;-54
2023/03/10 00:36:30;;;;;;;22.50;14.38;;;2.00;99.90;;;;;;5015796;28;20592;-52
2023/03/10 00:38:59;;;;;;;25.52;15.45;;;2.00;99.90;;;;;;5021166;28;20041;-56
2023/03/10 00:41:31;;;;;;;24.45;14.95;;;2.00;99.90;;;;;;5013730;28;20061;-55
2023/03/10 00:43:57;;;;;;;25.02;15.63;;;2.00;99.90;;;;;;5002222;28;20052;-55
2023/03/10 00:46:25;;;;;;;27.70;15.63;;;2.00;99.90;;;;;;5020535;28;20516;-56
2023/03/10 00:48:51;;;;;;;26.85;15.25;;;2.00;99.90;;;;;;5028437;28;20113;-56
2023/03/10 00:51:18;;;;;;;28.58;16.50;;;2.00;99.90;;;;;;5003327;28;20041;-57
2023/03/10 00:53:43;;;;;;;28.80;16.73;;;2.00;99.90;;;;;;5020343;28;20061;-58
2023/03/10 00:56:18;;;;;;;28.95;17.35;;;2.00;99.90;;;;;;5022067;28;20058;-59
2023/03/10 00:58:45;;;;;;;33.15;18.77;;;2.00;99.90;;;;;;5028617;28;20125;-59
2023/03/10 01:01:34;;;;;;;29.10;17.38;;;2.00;99.90;;;;;;5021423;28;20060;-59
2023/03/10 01:04:04;;;;;;;33.95;19.67;;;2.00;99.90;;;;;;5025526;28;20055;-59
2023/03/10 01:06:29;;;;;;;35.28;19.90;;;2.00;99.90;;;;;;5023407;28;20074;-58
2023/03/10 01:08:55;;;;;;;34.28;19.50;;;2.00;99.90;;;;;;5041484;28;20280;-59
2023/03/10 01:11:24;;;;;;;34.92;19.80;;;2.00;99.90;;;;;;5021987;28;20389;-58
2023/03/10 01:13:50;;;;;;;36.67;21.50;;;2.00;99.90;;;;;;5008408;28;20053;-56
2023/03/10 01:16:16;;;;;;;33.80;20.05;;;2.00;99.90;;;;;;5026128;28;20037;-57
2023/03/10 01:18:42;;;;;;;33.72;19.13;;;2.00;99.90;;;;;;5017246;28;20052;-56
2023/03/10 01:21:29;;;;;;;37.65;22.08;;;2.10;99.90;;;;;;5025696;28;20372;-54
2023/03/10 01:23:55;;;;;;;32.85;20.25;;;2.10;99.90;;;;;;4999347;28;20030;-58
2023/03/10 01:26:21;;;;;;;32.17;19.13;;;2.10;99.90;;;;;;5008923;28;20791;-55
2023/03/10 01:28:48;;;;;;;33.08;20.95;;;2.10;99.90;;;;;;5023111;28;20483;-56
2023/03/10 01:31:14;;;;;;;32.10;20.17;;;2.10;99.90;;;;;;5018038;28;20451;-57
2023/03/10 01:33:40;;;;;;;30.90;19.17;;;2.10;99.90;;;;;;5019594;28;20175;-58
2023/03/10 01:36:11;;;;;;;29.90;18.60;;;2.10;99.90;;;;;;5021008;28;20086;-56
2023/03/10 01:38:38;;;;;;;29.20;17.92;;;2.10;99.90;;;;;;5036432;28;20036;-56
2023/03/10 01:41:05;;;;;;;31.63;18.63;;;2.10;99.90;;;;;;5014909;28;20052;-54
2023/03/10 01:43:42;;;;;;;30.77;18.48;;;2.10;99.90;;;;;;5017916;28;20064;-56
2023/03/10 01:46:26;;;;;;;30.13;17.13;;;2.20;99.90;;;;;;5031135;28;20653;-55
2023/03/10 01:48:55;;;;;;;28.15;15.95;;;2.20;99.90;;;;;;5018380;28;20038;-56
2023/03/10 01:51:22;;;;;;;28.67;16.30;;;2.20;99.90;;;;;;5015668;28;20116;-57
2023/03/10 01:53:47;;;;;;;23.88;15.18;;;2.20;99.90;;;;;;5039806;28;20052;-56
2023/03/10 01:56:13;;;;;;;25.65;15.80;;;2.20;99.90;;;;;;5002596;28;20177;-55
2023/03/10 01:58:43;;;;;;;25.77;15.10;;;2.20;99.90;;;;;;5017321;28;20166;-55
2023/03/10 02:01:10;;;;;;;24.63;14.57;;;2.20;99.90;;;;;;5041048;28;20033;-55
2023/03/10 02:03:39;;;;;;;23.73;13.95;;;2.20;99.90;;;;;;5047075;28;20524;-52
2023/03/10 02:06:09;;;;;;;24.02;14.57;;;2.20;99.90;;;;;;5013653;28;20041;-54
2023/03/10 02:08:41;;;;;;;26.05;15.77;;;2.10;99.90;;;;;;5040788;28;20037;-52
2023/03/10 02:11:07;;;;;;;21.77;13.57;;;2.10;99.90;;;;;;5024580;28;20130;-53
2023/03/10 02:13:32;;;;;;;24.58;14.25;;;2.10;99.90;;;;;;5022422;28;20500;-57
2023/03/10 02:15:58;;;;;;;21.60;12.93;;;2.10;99.90;;;;;;5018125;28;20049;-55
2023/03/10 02:18:25;;;;;;;23.33;14.20;;;2.10;99.90;;;;;;4999634;28;20142;-53
2023/03/10 02:21:05;;;;;;;23.42;13.70;;;2.10;99.90;;;;;;4998223;28;20443;-57
2023/03/10 02:24:03;;;;;;;22.48;13.65;;;2.10;99.90;;;;;;5021639;28;20052;-53
2023/03/10 02:26:55;;;;;;;21.58;13.57;;;2.00;99.90;;;;;;4989681;28;20041;-56
2023/03/10 02:29:50;;;;;;;23.17;13.43;;;2.00;99.90;;;;;;4993911;28;20392;-54
2023/03/10 02:32:17;;;;;;;24.23;14.48;;;2.00;99.90;;;;;;4996285;28;20217;-54
2023/03/10 02:34:43;;;;;;;24.10;13.50;;;2.00;99.90;;;;;;5018398;28;20493;-53
2023/03/10 02:37:28;;;;;;;22.08;13.65;;;1.90;99.90;;;;;;5022349;28;20076;-55
2023/03/10 02:39:55;;;;;;;27.73;15.65;;;1.90;99.90;;;;;;5023580;28;20051;-55
2023/03/10 02:42:23;;;;;;;23.50;13.70;;;2.00;99.90;;;;;;5018185;28;20077;-56
2023/03/10 02:44:49;;;;;;;22.42;12.93;;;2.00;99.90;;;;;;5015040;28;20049;-56
2023/03/10 02:47:15;;;;;;;25.80;15.18;;;2.00;99.90;;;;;;5025785;28;20041;-55
2023/03/10 02:49:41;;;;;;;25.90;14.30;;;2.00;99.90;;;;;;5009300;28;20395;-55
2023/03/10 02:52:16;;;;;;;24.10;14.20;;;2.00;99.90;;;;;;5038013;28;20496;-53
2023/03/10 02:54:42;;;;;;;24.05;14.27;;;2.00;99.90;;;;;;5028782;28;20514;-57
2023/03/10 02:57:08;;;;;;;24.90;14.75;;;2.00;99.90;;;;;;5041533;28;20217;-54
2023/03/10 02:59:33;;;;;;;23.20;13.93;;;1.90;99.90;;;;;;5010102;28;20383;-56
2023/03/10 03:01:59;;;;;;;25.35;15.23;;;1.90;99.90;;;;;;5038567;28;20052;-57
2023/03/10 03:04:25;;;;;;;24.60;15.02;;;1.90;99.90;;;;;;5053021;28;20028;-56
2023/03/10 03:06:50;;;;;;;22.88;13.77;;;1.90;99.90;;;;;;5021833;28;20131;-57
2023/03/10 03:09:16;;;;;;;22.42;13.18;;;1.90;99.90;;;;;;5029488;28;20044;-55
2023/03/10 03:11:42;;;;;;;23.38;14.30;;;1.90;99.90;;;;;;5026802;28;20295;-55
2023/03/10 03:14:07;;;;;;;22.60;13.52;;;1.90;99.90;;;;;;5024634;28;20045;-56
2023/03/10 03:16:33;;;;;;;23.17;14.05;;;1.90;99.90;;;;;;5016509;28;20040;-57
2023/03/10 03:18:59;;;;;;;26.55;14.93;;;1.90;99.90;;;;;;5032783;28;20044;-53
2023/03/10 03:21:26;;;;;;;26.73;14.65;;;1.90;99.90;;;;;;5023096;28;20552;-52
2023/03/10 03:23:51;;;;;;;24.08;13.13;;;1.90;99.90;;;;;;5019388;28;20130;-57
2023/03/10 03:26:23;;;;;;;26.33;15.20;;;1.90;99.90;;;;;;5011316;28;20484;-55
2023/03/10 03:28:48;;;;;;;27.48;15.18;;;1.90;99.90;;;;;;5005445;28;20500;-54
2023/03/10 03:31:20;;;;;;;27.88;15.88;;;1.90;99.90;;;;;;5024676;28;20048;-54
2023/03/10 03:33:46;;;;;;;27.25;14.88;;;2.10;99.90;;;;;;5016833;28;20541;-57
2023/03/10 03:36:12;;;;;;;31.23;16.85;;;1.80;99.90;;;;;;5000569;28;20045;-56
2023/03/10 03:38:39;;;;;;;30.95;16.88;;;1.80;99.90;;;;;;5005081;28;20506;-56
2023/03/10 03:41:05;;;;;;;29.65;17.08;;;1.80;99.90;;;;;;5019781;28;20126;-56
2023/03/10 03:43:31;;;;;;;27.95;16.95;;;1.80;99.90;;;;;;5030381;28;20397;-57
2023/03/10 03:45:57;;;;;;;27.60;16.70;;;1.70;99.90;;;;;;5031070;28;20069;-56
2023/03/10 03:48:23;;;;;;;29.95;16.58;;;1.70;99.90;;;;;;5010430;28;20033;-56
2023/03/10 03:50:49;;;;;;;30.92;17.83;;;1.80;99.90;;;;;;5029016;28;20037;-55
2023/03/10 03:53:14;;;;;;;32.78;17.42;;;1.70;99.90;;;;;;5028428;28;20037;-56
2023/03/10 03:55:40;;;;;;;30.60;17.58;;;1.70;99.90;;;;;;5026364;28;20063;-57
2023/03/10 03:58:06;;;;;;;29.15;17.65;;;1.70;99.90;;;;;;5001837;28;20045;-56
2023/03/10 04:00:35;;;;;;;30.40;17.52;;;1.70;99.90;;;;;;5020763;28;20040;-57
2023/03/10 04:03:01;;;;;;;30.60;17.45;;;1.70;99.90;;;;;;5020699;28;20136;-56
2023/03/10 04:05:27;;;;;;;35.97;19.85;;;1.70;99.90;;;;;;5026487;28;20182;-57
2023/03/10 04:07:53;;;;;;;30.92;17.73;;;1.60;99.90;;;;;;5005198;28;20415;-56
2023/03/10 04:10:22;;;;;;;28.73;17.35;;;1.60;99.90;;;;;;5018987;28;20045;-55
2023/03/10 04:12:48;;;;;;;32.72;18.27;;;1.70;99.90;;;;;;5021560;28;20037;-56
2023/03/10 04:15:14;;;;;;;41.35;20.63;;;1.60;99.90;;;;;;5026563;28;20099;-54
2023/03/10 04:17:40;;;;;;;38.70;20.55;;;1.60;99.90;;;;;;5022779;28;20041;-55
2023/03/10 04:20:08;;;;;;;31.45;18.50;;;1.60;99.90;;;;;;5021763;28;20060;-56
2023/03/10 04:22:35;;;;;;;36.10;19.25;;;1.60;99.90;;;;;;5025840;28;20049;-54
2023/03/10 04:25:00;;;;;;;36.63;19.25;;;1.60;99.90;;;;;;5019335;28;20087;-57
2023/03/10 04:27:26;;;;;;;33.22;19.45;;;1.60;99.90;;;;;;5014344;28;20607;-56
2023/03/10 04:29:52;;;;;;;35.15;19.50;;;1.60;99.90;;;;;;5024259;28;20087;-53
2023/03/10 04:32:18;;;;;;;36.65;19.42;;;1.60;99.90;;;;;;4991152;28;20583;-56
2023/03/10 04:34:43;;;;;;;31.88;18.60;;;1.60;99.90;;;;;;5023460;28;20415;-55
2023/03/10 04:37:09;;;;;;;33.10;18.50;;;1.60;99.90;;;;;;5006737;28;20049;-56
2023/03/10 04:39:35;;;;;;;35.70;19.63;;;1.60;99.90;;;;;;5046293;28;20025;-56
2023/03/10 04:42:02;;;;;;;33.30;17.65;;;1.60;99.90;;;;;;5016769;28;20032;-54
2023/03/10 04:44:27;;;;;;;35.50;20.13;;;1.50;99.90;;;;;;5023100;28;20423;-57
2023/03/10 04:46:53;;;;;;;33.17;19.05;;;1.60;99.90;;;;;;5018299;28;20049;-53
2023/03/10 04:49:19;;;;;;;37.55;19.70;;;1.50;99.90;;;;;;5023779;28;20245;-54
2023/03/10 04:51:44;;;;;;;34.05;18.63;;;1.50;99.90;;;;;;5036402;28;20043;-57
2023/03/10 04:54:10;;;;;;;37.72;20.70;;;1.60;99.90;;;;;;4998224;28;20068;-54
2023/03/10 04:56:36;;;;;;;41.72;22.13;;;1.50;99.90;;;;;;5008149;28;20045;-55
2023/03/10 04:59:02;;;;;;;39.15;21.52;;;1.50;99.90;;;;;;5028555;28;20076;-56
2023/03/10 05:01:32;;;;;;;36.97;19.33;;;1.50;99.90;;;;;;5019099;28;20060;-57
2023/03/10 05:04:02;;;;;;;32.00;18.88;;;1.40;99.90;;;;;;5013695;28;20052;-55
2023/03/10 05:06:28;;;;;;;37.65;19.60;;;1.50;99.90;;;;;;5032931;28;20052;-56
2023/03/10 05:08:54;;;;;;;39.15;20.85;;;1.50;99.90;;;;;;5018896;28;20760;-54
2023/03/10 05:11:19;;;;;;;37.42;19.90;;;1.40;99.90;;;;;;5017355;28;20041;-55
2023/03/10 05:13:45;;;;;;;45.75;23.15;;;1.50;99.90;;;;;;5008626;28;20404;-51
2023/03/10 05:16:17;;;;;;;44.53;23.13;;;1.50;99.90;;;;;;4999701;28;20053;-54
2023/03/10 05:18:42;;;;;;;43.47;22.05;;;1.50;99.90;;;;;;5023636;28;20070;-55
2023/03/10 05:23:42;;;;;;;48.75;24.30;;;1.50;99.90;;;;;;5038900;28;20044;-57
2023/03/10 05:26:09;;;;;;;51.42;25.13;;;1.40;99.90;;;;;;5027685;22;20056;-61
2023/03/10 05:28:35;;;;;;;54.00;26.38;;;1.40;99.90;;;;;;5021464;28;20110;-59
2023/03/10 05:31:11;;;;;;;59.45;28.30;;;1.40;99.90;;;;;;5025699;28;20075;-61
2023/03/10 05:33:37;;;;;;;63.40;27.90;;;1.40;99.90;;;;;;5018752;28;20052;-60
2023/03/10 05:36:04;;;;;;;64.95;31.17;;;1.40;99.90;;;;;;5021498;28;20037;-62
2023/03/10 05:38:30;;;;;;;57.60;28.73;;;1.40;99.90;;;;;;5021931;28;20053;-60
2023/03/10 05:40:56;;;;;;;60.05;29.00;;;1.40;99.90;;;;;;5021771;28;20047;-59
2023/03/10 05:43:22;;;;;;;67.97;32.35;;;1.40;99.90;;;;;;5019910;28;20055;-60
2023/03/10 05:45:57;;;;;;;66.43;31.38;;;1.40;99.90;;;;;;5021723;28;20040;-60
2023/03/10 05:48:24;;;;;;;61.10;29.40;;;1.40;99.90;;;;;;5005976;28;20399;-60
2023/03/10 05:51:16;;;;;;;72.18;31.52;;;1.40;99.90;;;;;;5019099;28;20049;-61
2023/03/10 05:53:42;;;;;;;70.75;32.20;;;1.40;99.90;;;;;;5013513;28;20062;-60
2023/03/10 05:56:11;;;;;;;71.85;33.15;;;1.40;99.90;;;;;;5003280;28;20118;-60
2023/03/10 05:58:37;;;;;;;63.85;30.13;;;1.40;99.90;;;;;;5016558;28;20368;-60
2023/03/10 06:01:04;;;;;;;65.63;30.75;;;1.40;99.90;;;;;;5017171;28;20049;-59
2023/03/10 06:03:30;;;;;;;65.00;30.63;;;1.40;99.90;;;;;;5010597;28;20095;-59
2023/03/10 06:05:57;;;;;;;62.70;29.95;;;1.40;99.90;;;;;;5021110;28;20288;-60
2023/03/10 06:08:23;;;;;;;73.18;31.55;;;1.40;99.90;;;;;;5030834;28;20210;-60
2023/03/10 06:10:49;;;;;;;66.35;30.52;;;1.40;99.90;;;;;;5026382;28;20040;-60
2023/03/10 06:13:18;;;;;;;54.55;26.23;;;1.40;99.90;;;;;;5021270;28;20040;-60
2023/03/10 06:15:51;;;;;;;60.83;27.85;;;1.40;99.90;;;;;;5023834;28;20037;-59
2023/03/10 06:18:18;;;;;;;57.90;26.60;;;1.40;99.90;;;;;;5009446;28;20307;-60
2023/03/10 06:20:43;;;;;;;57.58;26.52;;;1.30;99.90;;;;;;5012788;28;20037;-60
2023/03/10 06:23:09;;;;;;;59.25;27.38;;;1.30;99.90;;;;;;5047672;28;20520;-60
2023/03/10 06:25:36;;;;;;;56.50;26.30;;;1.30;99.90;;;;;;5029018;28;20487;-60
2023/03/10 06:28:02;;;;;;;54.42;23.92;;;1.30;99.90;;;;;;5026834;28;20525;-61
2023/03/10 06:30:27;;;;;;;62.83;25.85;;;1.20;99.90;;;;;;5024288;28;20495;-60
2023/03/10 06:32:53;;;;;;;50.95;22.60;;;1.30;99.90;;;;;;5026515;28;20120;-59
2023/03/10 06:35:19;;;;;;;43.80;22.42;;;1.30;99.90;;;;;;5027610;28;20078;-60
2023/03/10 06:37:45;;;;;;;54.85;24.52;;;1.30;99.90;;;;;;5012593;28;20037;-59
2023/03/10 06:40:12;;;;;;;45.22;21.73;;;1.30;99.90;;;;;;5007749;28;20139;-60
2023/03/10 06:42:39;;;;;;;42.38;20.13;;;1.30;99.90;;;;;;5036177;28;20075;-59
2023/03/10 06:45:06;;;;;;;41.03;20.58;;;1.40;99.90;;;;;;5021886;28;20044;-60
2023/03/10 06:47:31;;;;;;;43.92;19.85;;;1.30;99.90;;;;;;5022023;28;20085;-60
2023/03/10 06:49:58;;;;;;;43.70;21.73;;;1.40;99.90;;;;;;5004750;28;20087;-59
2023/03/10 06:52:24;;;;;;;37.35;20.05;;;1.40;99.90;;;;;;5021432;28;20476;-59
2023/03/10 06:54:50;;;;;;;42.28;19.30;;;1.40;99.90;;;;;;5013303;28;20095;-60
2023/03/10 06:57:16;;;;;;;43.65;21.17;;;1.40;99.90;;;;;;5025060;28;20036;-60
2023/03/10 06:59:41;;;;;;;45.63;22.63;;;1.50;99.90;;;;;;5006848;28;20284;-60
2023/03/10 07:02:11;;;;;;;41.15;20.00;;;1.50;99.90;;;;;;5022162;28;20356;-60
2023/03/10 07:04:36;;;;;;;47.63;21.67;;;1.50;99.90;;;;;;5024364;28;20118;-59
2023/03/10 07:07:02;;;;;;;40.50;20.00;;;1.50;99.90;;;;;;5003670;28;20476;-60
2023/03/10 07:09:28;;;;;;;41.40;21.52;;;1.50;99.90;;;;;;5026682;28;20037;-59
2023/03/10 07:11:53;;;;;;;39.55;19.52;;;1.60;99.90;;;;;;5041542;28;20040;-60
2023/03/10 07:14:19;;;;;;;37.30;19.92;;;1.60;99.90;;;;;;5020808;28;20045;-59
2023/03/10 07:16:45;;;;;;;37.40;19.02;;;1.60;99.90;;;;;;5023755;28;20573;-59
2023/03/10 07:19:11;;;;;;;37.97;19.95;;;1.60;99.90;;;;;;5026796;28;20525;-60
2023/03/10 07:21:37;;;;;;;37.55;19.15;;;1.60;99.90;;;;;;5021248;28;20473;-60
2023/03/10 07:24:04;;;;;;;34.53;18.27;;;1.70;99.90;;;;;;5041884;28;20041;-59
2023/03/10 07:26:30;;;;;;;34.53;18.33;;;1.70;99.90;;;;;;5009336;28;20041;-60
2023/03/10 07:28:56;;;;;;;33.42;17.88;;;1.70;99.90;;;;;;5024330;28;20040;-60
2023/03/10 07:31:21;;;;;;;31.10;16.45;;;1.80;99.90;;;;;;5022380;28;20041;-59
2023/03/10 07:33:48;;;;;;;32.42;17.88;;;1.80;99.90;;;;;;5025028;28;20051;-60
2023/03/10 07:36:16;;;;;;;31.35;17.25;;;1.80;99.90;;;;;;5020258;28;20398;-60
2023/03/10 07:38:42;;;;;;;36.70;18.35;;;1.80;99.90;;;;;;5019970;28;20049;-59
2023/03/10 07:41:10;;;;;;;32.42;16.65;;;1.80;99.90;;;;;;5027377;28;20052;-60
2023/03/10 07:43:36;;;;;;;27.88;15.18;;;1.80;99.90;;;;;;5008680;28;20045;-60
2023/03/10 07:46:10;;;;;;;29.88;16.73;;;1.80;99.90;;;;;;5029627;28;20075;-60
2023/03/10 07:48:35;;;;;;;29.83;15.70;;;1.80;99.90;;;;;;5041552;28;20084;-59
2023/03/10 07:51:01;;;;;;;28.33;15.73;;;1.80;99.90;;;;;;5010568;28;20092;-58
2023/03/10 07:53:27;;;;;;;25.35;14.82;;;1.80;99.90;;;;;;5020566;28;20044;-59
2023/03/10 07:55:53;;;;;;;28.27;15.70;;;1.80;99.90;;;;;;5024689;28;20045;-60
2023/03/10 07:58:19;;;;;;;27.27;15.50;;;1.70;99.90;;;;;;5022706;28;20061;-59
2023/03/10 08:00:45;;;;;;;27.80;15.38;;;1.70;99.90;;;;;;5025990;28;20076;-60
2023/03/10 08:03:11;;;;;;;27.90;15.45;;;1.80;99.90;;;;;;5023079;28;20032;-59
2023/03/10 08:05:41;;;;;;;29.40;15.65;;;1.80;99.90;;;;;;5021463;28;20090;-59
2023/03/10 08:08:07;;;;;;;29.95;15.52;;;1.80;99.90;;;;;;5026575;28;20045;-59
2023/03/10 08:10:33;;;;;;;28.67;15.90;;;1.80;99.90;;;;;;5019581;28;20037;-60
2023/03/10 08:12:59;;;;;;;33.15;18.40;;;1.80;99.90;;;;;;5024440;28;20056;-60
2023/03/10 08:15:25;;;;;;;32.72;17.50;;;1.80;99.90;;;;;;5005926;28;20255;-59
2023/03/10 08:17:51;;;;;;;36.53;17.42;;;1.80;99.90;;;;;;5041324;28;20254;-58
2023/03/10 08:20:17;;;;;;;29.67;16.33;;;1.90;99.90;;;;;;5039492;28;20048;-58
2023/03/10 08:22:43;;;;;;;34.22;17.88;;;1.80;99.90;;;;;;5019520;28;20389;-59
2023/03/10 08:25:11;;;;;;;31.85;16.27;;;1.90;99.90;;;;;;4987692;28;20047;-60
2023/03/10 08:27:37;;;;;;;26.88;16.02;;;1.90;99.90;;;;;;5002814;28;20036;-60
2023/03/10 08:30:04;;;;;;;29.42;15.63;;;1.90;99.90;;;;;;5005436;28;20099;-60
2023/03/10 08:32:29;;;;;;;25.05;14.55;;;1.90;99.90;;;;;;5018064;28;20037;-61
2023/03/10 08:34:55;;;;;;;28.42;16.38;;;1.90;99.90;;;;;;5012857;28;20557;-59
2023/03/10 08:37:21;;;;;;;27.73;15.98;;;1.90;99.90;;;;;;5006052;28;20076;-59
2023/03/10 08:39:48;;;;;;;27.52;16.23;;;1.90;99.90;;;;;;5021777;28;20094;-61
2023/03/10 08:42:14;;;;;;;27.40;16.52;;;1.90;99.90;;;;;;5007388;28;20060;-59
2023/03/10 08:44:40;;;;;;;27.67;15.80;;;1.90;99.90;;;;;;5012847;28;21641;-60
2023/03/10 08:47:06;;;;;;;30.85;17.50;;;1.90;99.90;;;;;;5022926;28;20040;-60
2023/03/10 08:49:32;;;;;;;26.75;15.70;;;1.90;99.90;;;;;;5018760;28;20114;-60
2023/03/10 08:51:59;;;;;;;32.38;17.42;;;1.90;99.90;;;;;;5009158;28;20559;-61
2023/03/10 08:54:24;;;;;;;30.08;17.55;;;1.90;99.90;;;;;;5021472;28;20037;-60
2023/03/10 08:56:50;;;;;;;29.85;18.00;;;1.90;99.90;;;;;;5024621;28;20045;-60
2023/03/10 08:59:17;;;;;;;30.52;17.42;;;1.90;99.90;;;;;;5026147;28;20063;-60
2023/03/10 09:01:42;;;;;;;34.25;18.77;;;1.90;99.90;;;;;;4998103;28;20086;-60
2023/03/10 09:04:09;;;;;;;34.35;18.75;;;1.90;99.90;;;;;;5006595;28;20045;-60
2023/03/10 09:06:36;;;;;;;32.60;17.52;;;1.90;99.90;;;;;;5018135;28;20116;-60
2023/03/10 09:09:04;;;;;;;30.77;17.67;;;1.90;99.90;;;;;;5020066;28;20569;-60
2023/03/10 09:11:32;;;;;;;35.30;19.63;;;1.90;99.90;;;;;;5023781;28;20495;-60
2023/03/10 09:13:59;;;;;;;30.30;17.58;;;1.90;99.90;;;;;;5041372;28;20045;-60
2023/03/10 09:16:27;;;;;;;32.35;18.23;;;1.90;99.90;;;;;;5027586;28;20044;-60
2023/03/10 09:18:53;;;;;;;32.08;18.42;;;1.90;99.90;;;;;;5010030;28;20063;-59
2023/03/10 09:21:19;;;;;;;32.92;19.40;;;1.90;99.90;;;;;;5025805;28;20344;-58
2023/03/10 09:23:47;;;;;;;35.28;20.42;;;2.00;99.90;;;;;;5002814;28;20037;-58
2023/03/10 09:26:14;;;;;;;37.00;19.90;;;1.90;99.90;;;;;;5041626;28;20045;-60
2023/03/10 09:28:40;;;;;;;31.85;19.05;;;2.00;99.90;;;;;;5001314;28;20513;-60
2023/03/10 09:31:07;;;;;;;29.23;17.90;;;1.90;99.90;;;;;;5037584;28;20446;-61
2023/03/10 09:33:34;;;;;;;33.75;19.25;;;1.90;99.90;;;;;;5010559;28;20256;-61
2023/03/10 09:36:02;;;;;;;32.97;17.63;;;2.00;99.90;;;;;;5020080;28;20492;-59
2023/03/10 09:38:28;;;;;;;32.08;18.13;;;2.00;99.90;;;;;;5022825;28;20123;-60
2023/03/10 09:41:08;;;;;;;31.08;18.10;;;1.90;99.90;;;;;;5015313;28;20041;-60
2023/03/10 09:43:40;;;;;;;29.83;16.40;;;1.90;99.90;;;;;;5023389;28;20455;-60
2023/03/10 09:46:18;;;;;;;29.23;16.30;;;1.80;99.90;;;;;;5026292;28;20045;-60
2023/03/10 09:49:06;;;;;;;31.15;15.30;;;1.70;99.90;;;;;;5022333;28;20037;-60
2023/03/10 09:51:31;;;;;;;27.52;15.55;;;1.70;99.90;;;;;;5014854;28;20644;-60
2023/03/10 09:54:25;;;;;;;28.85;16.08;;;1.70;99.90;;;;;;4999821;28;20048;-59
2023/03/10 09:56:51;;;;;;;26.58;14.73;;;1.70;99.90;;;;;;5016149;28;20037;-60
2023/03/10 09:59:29;;;;;;;26.73;14.73;;;1.70;99.90;;;;;;5015612;28;20411;-60
2023/03/10 10:01:55;;;;;;;28.10;15.63;;;1.70;99.90;;;;;;5023520;28;20053;-61
2023/03/10 10:04:34;;;;;;;29.05;16.90;;;1.80;99.90;;;;;;5016897;28;20272;-60
2023/03/10 10:07:01;;;;;;;29.70;17.65;;;1.80;99.90;;;;;;5018438;28;20044;-60
2023/03/10 10:09:42;;;;;;;30.25;18.95;;;1.80;99.90;;;;;;5019290;28;20392;-59
2023/03/10 10:12:13;;;;;;;33.42;19.00;;;1.80;99.90;;;;;;5020502;28;20075;-60
2023/03/10 10:14:40;;;;;;;33.45;17.92;;;1.80;99.90;;;;;;4991096;28;20041;-59
2023/03/10 10:17:25;;;;;;;33.45;20.63;;;1.80;99.90;;;;;;5017111;28;20032;-61
2023/03/10 10:19:52;;;;;;;32.30;17.33;;;1.80;99.90;;;;;;5026537;28;20047;-59
2023/03/10 10:22:29;;;;;;;32.83;18.90;;;1.90;99.90;;;;;;5023032;28;20124;-60
2023/03/10 10:25:07;;;;;;;29.27;17.63;;;1.90;99.90;;;;;;4997056;28;20452;-58
2023/03/10 10:27:33;;;;;;;31.88;18.15;;;2.00;99.90;;;;;;5013197;28;20124;-60
2023/03/10 10:30:26;;;;;;;30.02;17.15;;;2.00;99.90;;;;;;5020954;28;20631;-60
2023/03/10 10:33:03;;;;;;;33.45;18.55;;;2.00;99.90;;;;;;5016442;28;20435;-59
2023/03/10 10:35:32;;;;;;;31.73;18.92;;;2.00;99.90;;;;;;5012533;28;20063;-59
2023/03/10 10:38:00;;;;;;;32.15;18.20;;;2.00;99.90;;;;;;5015171;28;20127;-60
2023/03/10 10:40:32;;;;;;;31.77;17.85;;;2.00;99.90;;;;;;5022398;28;20230;-60
2023/03/10 10:42:59;;;;;;;33.55;19.48;;;2.00;99.90;;;;;;4999586;28;20045;-61
2023/03/10 10:45:36;;;;;;;36.45;20.10;;;2.10;99.90;;;;;;5017940;28;20786;-60
2023/03/10 10:48:03;;;;;;;35.95;21.00;;;2.10;99.90;;;;;;5011357;28;20045;-59
2023/03/10 10:50:34;;;;;;;34.05;19.95;;;2.10;99.90;;;;;;4986486;28;20033;-59
2023/03/10 10:53:15;;;;;;;39.17;22.20;;;2.10;99.90;;;;;;5011400;28;20049;-60
2023/03/10 10:55:45;;;;;;;38.28;22.17;;;2.10;99.90;;;;;;5009654;28;20056;-60
2023/03/10 10:58:28;;;;;;;36.97;22.25;;;2.00;99.90;;;;;;5006392;28;20517;-60
2023/03/10 11:00:57;;;;;;;37.33;22.98;;;2.10;99.90;;;;;;5011923;28;20400;-59
2023/03/10 11:03:36;;;;;;;40.28;23.90;;;2.00;99.90;;;;;;5022038;28;20487;-59
2023/03/10 11:06:17;;;;;;;41.78;23.15;;;2.10;99.90;;;;;;5016175;28;20140;-58
2023/03/10 11:08:49;;;;;;;39.08;22.95;;;2.10;99.90;;;;;;5034023;28;20041;-60
2023/03/10 11:11:30;;;;;;;40.22;23.40;;;2.10;99.90;;;;;;5035703;28;22083;-59
2023/03/10 11:14:04;;;;;;;41.33;23.25;;;2.10;99.90;;;;;;5007526;28;20053;-59
2023/03/10 11:16:51;;;;;;;41.28;24.77;;;2.10;99.90;;;;;;5021571;28;20282;-60
2023/03/10 11:19:27;;;;;;;40.17;23.00;;;2.20;99.90;;;;;;5015052;28;20075;-58
2023/03/10 11:21:59;;;;;;;41.55;23.67;;;2.20;99.90;;;;;;5022105;28;20116;-60
2023/03/10 11:24:36;;;;;;;42.72;25.48;;;2.20;99.90;;;;;;5020567;28;20041;-58
2023/03/10 11:27:39;;;;;;;40.75;24.05;;;2.20;99.90;;;;;;5028870;28;20071;-59
2023/03/10 11:30:27;;;;;;;41.25;24.60;;;2.20;99.90;;;;;;5019499;28;20091;-59
2023/03/10 11:33:05;;;;;;;38.40;23.02;;;2.20;99.90;;;;;;5021143;28;20095;-59
2023/03/10 11:35:42;;;;;;;44.33;24.92;;;2.20;99.90;;;;;;5022441;28;20049;-59
2023/03/10 11:38:20;;;;;;;40.45;23.50;;;2.30;99.90;;;;;;5003631;28;20500;-59
2023/03/10 11:40:56;;;;;;;46.25;25.75;;;2.30;99.90;;;;;;5025778;28;20057;-59
2023/03/10 11:43:38;;;;;;;42.13;23.80;;;2.30;99.90;;;;;;5011718;28;20055;-60
2023/03/10 11:46:43;;;;;;;47.80;25.05;;;2.30;99.90;;;;;;5024644;28;20270;-58
2023/03/10 11:49:14;;;;;;;41.97;23.42;;;2.40;99.90;;;;;;5008217;28;20036;-59
2023/03/10 11:51:50;;;;;;;41.45;22.58;;;2.40;99.90;;;;;;5006531;28;20369;-60
2023/03/10 11:54:22;;;;;;;40.50;21.50;;;2.40;99.90;;;;;;5022038;28;20056;-60
2023/03/10 11:56:50;;;;;;;38.55;21.35;;;2.30;99.90;;;;;;5006003;28;20037;-60
2023/03/10 11:59:26;;;;;;;38.92;22.20;;;2.40;99.90;;;;;;5013481;28;20046;-60
2023/03/10 12:02:25;;;;;;;42.58;22.85;;;2.40;99.90;;;;;;5023497;28;20044;-60
2023/03/10 12:04:59;;;;;;;43.08;22.85;;;2.40;99.90;;;;;;5024462;28;20217;-60
2023/03/10 12:07:38;;;;;;;39.92;21.50;;;2.30;99.90;;;;;;5014711;28;20061;-60
2023/03/10 12:10:12;;;;;;;39.50;22.15;;;2.30;99.90;;;;;;5030847;28;20044;-58
2023/03/10 12:12:46;;;;;;;40.38;22.35;;;2.30;99.90;;;;;;5007730;28;20037;-59
2023/03/10 12:15:18;;;;;;;40.45;22.98;;;2.30;99.90;;;;;;5026555;28;20052;-59
2023/03/10 12:17:48;;;;;;;41.28;22.20;;;2.30;99.90;;;;;;5023067;28;20705;-60
2023/03/10 12:20:17;;;;;;;40.70;22.48;;;2.40;99.90;;;;;;5030323;28;20041;-60
2023/03/10 12:22:42;;;;;;;45.28;23.73;;;2.40;99.90;;;;;;5006760;28;20064;-60
2023/03/10 12:25:26;;;;;;;42.55;22.35;;;2.40;99.90;;;;;;5024999;28;20549;-60
2023/03/10 12:28:14;;;;;;;40.72;21.35;;;2.50;99.90;;;;;;5028207;28;20463;-59
2023/03/10 12:30:55;;;;;;;42.58;21.90;;;2.50;99.90;;;;;;5030477;28;20068;-60
2023/03/10 12:33:30;;;;;;;41.00;21.60;;;2.50;99.90;;;;;;5025801;28;20051;-61
2023/03/10 12:36:20;;;;;;;38.47;22.25;;;2.50;99.90;;;;;;5007325;28;20175;-61
2023/03/10 12:39:21;;;;;;;40.33;21.85;;;2.60;99.90;;;;;;5019212;28;20504;-60
2023/03/10 12:41:48;;;;;;;36.47;21.38;;;2.50;99.90;;;;;;5026985;28;20079;-60
2023/03/10 12:44:42;;;;;;;41.75;21.40;;;2.50;99.90;;;;;;5025626;28;20408;-60
2023/03/10 12:47:19;;;;;;;35.55;19.75;;;2.50;99.90;;;;;;5018492;28;20298;-60
2023/03/10 12:49:49;;;;;;;39.78;19.48;;;2.60;99.90;;;;;;5012036;28;20154;-60
2023/03/10 12:52:23;;;;;;;33.53;19.02;;;2.60;99.90;;;;;;4999959;28;20574;-60